Time;durP1;ratioP1;P1;durP2;ratioP2;P2;SDS_P1;SDS_P2;PMS_P1;PMS_P2;Temp;Humidity;BMP_temperature;BMP_pressure;BME280_temperature;BME280_humidity;BME280_pressure;Samples;Min_cycle;Max_cycle;Signal;HPM_P1;HPM_P2
2022/10/15 00:01:10;;;;;;;20.97;11.75;;;;;;;4.14;100.00;101627.95;1573646;91;21576;-73
2022/10/15 00:03:41;;;;;;;22.50;12.37;;;;;;;4.11;100.00;101624.11;1579364;89;21077;-73
2022/10/15 00:06:15;;;;;;;22.90;12.10;;;;;;;4.04;100.00;101627.52;1569974;91;21593;-73
2022/10/15 00:08:45;;;;;;;21.90;12.30;;;;;;;4.02;100.00;101622.85;1575164;90;21656;-73
2022/10/15 00:11:17;;;;;;;22.70;12.82;;;;;;;3.95;100.00;101622.41;1579620;91;21552;-74
2022/10/15 00:13:45;;;;;;;22.45;12.37;;;;;;;3.85;100.00;101620.69;1579493;91;21121;-73
2022/10/15 00:16:17;;;;;;;20.90;11.65;;;;;;;3.81;100.00;101624.92;1579657;91;21622;-73
2022/10/15 00:18:45;;;;;;;21.75;11.57;;;;;;;3.73;100.00;101630.03;1578670;91;21133;-73
2022/10/15 00:21:14;;;;;;;19.60;10.58;;;;;;;3.70;100.00;101624.91;1579221;91;21521;-73
2022/10/15 00:23:42;;;;;;;17.50;9.95;;;;;;;3.66;100.00;101619.38;1579178;91;21108;-73
2022/10/15 00:26:17;;;;;;;16.87;9.80;;;;;;;3.60;100.00;101627.02;1578990;89;21125;-73
2022/10/15 00:28:46;;;;;;;15.48;9.00;;;;;;;3.54;100.00;101625.29;1568804;91;21081;-74
2022/10/15 00:31:15;;;;;;;20.05;9.65;;;;;;;3.48;100.00;101630.36;1580417;90;21076;-73
2022/10/15 00:33:44;;;;;;;17.15;9.98;;;;;;;3.44;100.00;101630.36;1574790;91;21112;-71
2022/10/15 00:36:17;;;;;;;16.17;9.40;;;;;;;3.41;100.00;101626.11;1580937;89;21088;-73
2022/10/15 00:38:44;;;;;;;18.37;9.58;;;;;;;3.39;100.00;101635.44;1579014;91;21132;-73
2022/10/15 00:41:29;;;;;;;14.35;8.75;;;;;;;3.38;100.00;101630.75;1579290;91;21073;-73
2022/10/15 00:44:03;;;;;;;18.12;9.58;;;;;;;3.38;100.00;101627.36;1577633;91;21172;-73
2022/10/15 00:46:41;;;;;;;15.23;8.58;;;;;;;3.40;100.00;101634.14;1576714;91;21089;-74
2022/10/15 00:49:37;;;;;;;14.45;8.50;;;;;;;3.38;100.00;101634.99;1566836;91;21243;-73
2022/10/15 00:52:11;;;;;;;15.63;8.00;;;;;;;3.34;100.00;101639.64;1578582;90;21159;-74
2022/10/15 00:54:43;;;;;;;14.38;8.00;;;;;;;3.28;100.00;101644.28;1579583;91;21089;-74
2022/10/15 00:57:11;;;;;;;11.85;6.62;;;;;;;3.24;100.00;101641.73;1578242;91;21096;-73
2022/10/15 00:59:42;;;;;;;13.50;6.95;;;;;;;3.17;100.00;101639.16;1579496;89;21497;-74
2022/10/15 01:02:10;;;;;;;10.68;7.37;;;;;;;3.16;100.00;101640.41;1578951;91;21049;-74
2022/10/15 01:04:37;;;;;;;13.85;7.17;;;;;;;3.13;100.00;101639.98;1579372;89;21089;-74
2022/10/15 01:07:07;;;;;;;13.25;7.17;;;;;;;3.16;100.00;101648.05;1579246;91;21633;-74
2022/10/15 01:09:35;;;;;;;12.53;7.33;;;;;;;3.16;100.00;101649.31;1579458;90;21076;-74
2022/10/15 01:12:06;;;;;;;13.43;7.42;;;;;;;3.16;100.00;101649.31;1579450;91;21148;-74
2022/10/15 01:15:00;;;;;;;14.63;7.30;;;;;;;3.09;100.00;101650.98;1577056;91;21085;-74
2022/10/15 01:17:50;;;;;;;;;;;;;;;3.05;100.00;101654.36;1573488;91;21605;-74
2022/10/15 01:20:56;;;;;;;13.93;6.90;;;;;;;2.91;100.00;101658.52;1576139;89;20116;-74
2022/10/15 01:23:59;;;;;;;12.25;6.60;;;;;;;2.87;100.00;101657.64;1577248;91;21121;-74
2022/10/15 01:26:56;;;;;;;12.60;6.50;;;;;;;2.80;100.00;101655.48;1577640;91;21092;-74
2022/10/15 01:29:43;;;;;;;10.93;6.03;;;;;;;2.82;100.00;101672.03;1577449;91;21050;-74
2022/10/15 01:32:36;;;;;;;14.60;6.53;;;;;;;2.80;100.00;101668.63;1577474;89;21081;-74
2022/10/15 01:35:41;;;;;;;12.03;6.30;;;;;;;2.78;100.00;101673.70;1547822;92;21596;-74
2022/10/15 01:38:16;;;;;;;10.80;5.67;;;;;;;2.76;100.00;101674.54;1573637;91;21537;-73
2022/10/15 01:40:58;;;;;;;14.07;6.67;;;;;;;2.74;100.00;101676.22;1577348;91;21088;-74
2022/10/15 01:43:41;;;;;;;10.63;6.70;;;;;;;2.69;100.00;101671.51;1571791;90;21663;-74
2022/10/15 01:46:18;;;;;;;9.98;6.55;;;;;;;2.67;100.00;101677.84;1570127;91;21125;-74
2022/10/15 01:48:54;;;;;;;12.00;6.90;;;;;;;2.54;100.00;101670.98;1567378;91;21125;-74
2022/10/15 01:51:23;;;;;;;10.98;6.70;;;;;;;2.54;100.00;101671.83;1571111;91;21529;-74
2022/10/15 01:53:53;;;;;;;10.98;6.70;;;;;;;2.43;100.00;101681.04;1596315;88;21132;-74
2022/10/15 01:56:22;;;;;;;15.48;7.58;;;;;;;2.43;100.00;101681.04;1560584;91;21660;-74
2022/10/15 01:58:52;;;;;;;15.63;7.47;;;;;;;2.37;100.00;101676.78;1558497;90;21136;-73
2022/10/15 02:01:19;;;;;;;15.35;7.35;;;;;;;2.39;100.00;101678.05;1562845;90;21171;-74
2022/10/15 02:03:49;;;;;;;12.93;7.70;;;;;;;2.36;100.00;101676.33;1559683;91;21068;-74
2022/10/15 02:06:36;;;;;;;12.82;7.20;;;;;;;2.36;100.00;101680.58;1568934;90;21105;-74
2022/10/15 02:09:43;;;;;;;13.70;7.85;;;;;;;2.33;100.00;101679.26;1570304;89;21623;-74
2022/10/15 02:12:33;;;;;;;14.47;7.75;;;;;;;2.26;100.00;101678.80;1569192;91;21079;-74
2022/10/15 02:15:12;;;;;;;14.15;8.25;;;;;;;2.11;100.00;101680.35;1567005;90;21101;-74
2022/10/15 02:18:01;;;;;;;14.23;7.90;;;;;;;2.11;100.00;101680.35;1571851;90;21152;-73
2022/10/15 02:20:36;;;;;;;17.87;8.43;;;;;;;2.07;100.00;101682.83;1567966;91;21109;-74
2022/10/15 02:23:14;;;;;;;14.70;8.10;;;;;;;2.02;100.00;101682.78;1582167;89;21537;-74
2022/10/15 02:25:43;;;;;;;12.98;7.42;;;;;;;2.02;100.00;101687.87;1572253;89;21108;-74
2022/10/15 02:28:13;;;;;;;18.65;8.18;;;;;;;2.00;100.00;101681.92;1572134;89;21175;-73
2022/10/15 02:30:44;;;;;;;14.93;7.87;;;;;;;1.88;100.00;101680.09;1575376;90;21128;-73
2022/10/15 02:33:12;;;;;;;13.53;7.50;;;;;;;1.89;100.00;101683.52;1570012;90;21100;-74
2022/10/15 02:35:42;;;;;;;15.75;7.83;;;;;;;1.91;100.00;101684.38;1575619;90;21045;-74
2022/10/15 02:38:13;;;;;;;15.38;8.15;;;;;;;1.90;100.00;101686.47;1578583;90;21167;-74
2022/10/15 02:40:43;;;;;;;17.00;8.33;;;;;;;1.89;100.00;101684.78;1570839;90;21155;-74
2022/10/15 02:43:13;;;;;;;12.07;7.28;;;;;;;1.89;100.00;101688.59;1584353;89;21108;-74
2022/10/15 02:45:40;;;;;;;14.58;7.33;;;;;;;1.87;100.00;101687.30;1572867;89;21127;-73
2022/10/15 02:48:07;;;;;;;14.70;7.78;;;;;;;1.83;100.00;101690.64;1566875;90;21072;-73
2022/10/15 02:50:35;;;;;;;14.23;7.70;;;;;;;1.80;100.00;101695.67;1570239;89;21675;-74
2022/10/15 02:53:03;;;;;;;14.05;7.30;;;;;;;1.72;100.00;101693.03;1579529;89;21116;-73
2022/10/15 02:55:30;;;;;;;10.82;7.17;;;;;;;1.66;100.00;101695.93;1571701;89;21112;-74
2022/10/15 02:57:57;;;;;;;14.40;7.30;;;;;;;1.56;100.00;101701.31;1571287;89;21616;-74
2022/10/15 03:00:25;;;;;;;12.75;7.10;;;;;;;1.50;100.00;101703.38;1577935;89;21088;-73
2022/10/15 03:02:52;;;;;;;15.23;7.97;;;;;;;1.53;100.00;101705.09;1574850;90;21572;-73
2022/10/15 03:05:20;;;;;;;15.72;8.18;;;;;;;1.54;100.00;101701.31;1578024;90;21121;-74
2022/10/15 03:07:47;;;;;;;17.40;9.35;;;;;;;1.57;100.00;101693.72;1567905;90;21193;-74
2022/10/15 03:10:14;;;;;;;18.60;9.80;;;;;;;1.53;100.00;101705.09;1573028;90;21128;-74
2022/10/15 03:12:42;;;;;;;19.20;9.50;;;;;;;1.48;100.00;101696.16;1574285;90;21096;-74
2022/10/15 03:15:10;;;;;;;18.92;10.50;;;;;;;1.54;100.00;101699.17;1581011;89;21084;-74
2022/10/15 03:17:37;;;;;;;16.77;9.83;;;;;;;1.55;100.00;101694.12;1570801;90;21113;-73
2022/10/15 03:20:05;;;;;;;19.82;11.03;;;;;;;1.56;100.00;101697.50;1571713;90;21131;-73
2022/10/15 03:22:36;;;;;;;23.22;11.10;;;;;;;1.53;100.00;101698.75;1578403;89;21121;-74
2022/10/15 03:25:04;;;;;;;22.80;10.80;;;;;;;1.53;100.00;101700.02;1574856;91;21097;-73
2022/10/15 03:27:31;;;;;;;24.23;12.35;;;;;;;1.51;100.00;101698.72;1574365;90;21057;-74
2022/10/15 03:29:58;;;;;;;24.37;11.25;;;;;;;1.51;100.00;101698.72;1571436;90;21121;-74
2022/10/15 03:32:26;;;;;;;20.88;10.45;;;;;;;1.51;100.00;101700.41;1572424;90;21132;-73
2022/10/15 03:34:53;;;;;;;23.47;11.33;;;;;;;1.51;100.00;101701.26;1576668;89;21148;-73
2022/10/15 03:37:20;;;;;;;22.27;10.78;;;;;;;1.49;100.00;101697.84;1567997;90;21068;-74
2022/10/15 03:39:47;;;;;;;22.35;10.70;;;;;;;1.45;100.00;101697.80;1576299;90;21140;-74
2022/10/15 03:42:15;;;;;;;21.25;11.70;;;;;;;1.37;100.00;101699.81;1564264;91;21088;-74
2022/10/15 03:44:45;;;;;;;24.25;11.95;;;;;;;1.28;100.00;101704.78;1576489;90;21073;-73
2022/10/15 03:47:14;;;;;;;21.57;11.65;;;;;;;1.29;100.00;101699.28;1570194;90;21104;-74
2022/10/15 03:49:43;;;;;;;20.45;10.65;;;;;;;1.25;100.00;101705.98;1576892;90;21049;-73
2022/10/15 03:52:10;;;;;;;21.75;11.20;;;;;;;1.24;100.00;101703.42;1563494;90;21085;-74
2022/10/15 03:54:39;;;;;;;21.05;11.65;;;;;;;1.23;100.00;101698.77;1565956;89;21145;-74
2022/10/15 03:57:08;;;;;;;21.50;10.50;;;;;;;1.25;100.00;101700.92;1561382;90;21101;-74
2022/10/15 03:59:37;;;;;;;20.62;10.63;;;;;;;1.26;100.00;101698.83;1573876;90;21112;-73
2022/10/15 04:02:05;;;;;;;18.57;10.32;;;;;;;1.25;100.00;101698.80;1573910;90;21090;-74
2022/10/15 04:04:32;;;;;;;16.93;9.75;;;;;;;1.28;100.00;101706.44;1577113;91;21049;-74
2022/10/15 04:07:00;;;;;;;20.02;11.08;;;;;;;1.30;100.00;101704.77;1577326;89;21093;-74
2022/10/15 04:09:29;;;;;;;21.37;10.65;;;;;;;1.31;100.00;101703.96;1577364;91;21144;-74
2022/10/15 04:11:58;;;;;;;26.45;13.18;;;;;;;1.26;100.00;101715.32;1577640;89;21045;-74
2022/10/15 04:14:26;;;;;;;29.18;15.10;;;;;;;1.26;100.00;101708.10;1577545;89;21569;-74
2022/10/15 04:16:57;;;;;;;27.25;14.38;;;;;;;1.26;100.00;101715.71;1577426;89;21593;-74
2022/10/15 04:19:26;;;;;;;27.90;14.07;;;;;;;1.26;100.00;101721.66;1577555;89;21115;-74
2022/10/15 04:21:55;;;;;;;32.15;14.78;;;;;;;1.26;100.00;101714.44;1577233;91;21046;-73
2022/10/15 04:24:34;;;;;;;23.83;12.35;;;;;;;1.28;100.00;101718.73;1577299;89;21081;-73
2022/10/15 04:27:00;;;;;;;35.80;15.72;;;;;;;1.29;100.00;101716.61;1577324;89;21577;-74
2022/10/15 04:29:27;;;;;;;31.77;16.62;;;;;;;1.34;100.00;101725.16;1577621;91;21102;-74
2022/10/15 04:31:56;;;;;;;38.23;17.55;;;;;;;1.34;100.00;101721.34;1577540;91;21081;-73
2022/10/15 04:34:23;;;;;;;35.40;17.12;;;;;;;1.33;100.00;101722.59;1577507;91;21135;-73
2022/10/15 04:36:51;;;;;;;66.22;31.42;;;;;;;1.35;100.00;101724.73;1577609;91;21132;-73
2022/10/15 04:39:20;;;;;;;62.80;30.17;;;;;;;1.34;100.00;101729.38;1577609;89;21073;-73
2022/10/15 04:41:47;;;;;;;54.53;25.43;;;;;;;1.34;100.00;101730.23;1569943;91;21148;-73
2022/10/15 04:44:16;;;;;;;44.83;21.10;;;;;;;1.43;100.00;101734.98;1577508;90;21565;-73
2022/10/15 04:46:47;;;;;;;54.70;25.52;;;;;;;1.46;100.00;101730.81;1577521;91;21113;-73
2022/10/15 04:49:21;;;;;;;67.70;30.75;;;;;;;1.43;100.00;101731.18;1565002;89;21097;-73
2022/10/15 04:51:48;;;;;;;69.50;32.15;;;;;;;1.49;100.00;101740.14;1578763;89;21117;-73
2022/10/15 04:54:17;;;;;;;59.48;28.98;;;;;;;1.51;100.00;101741.02;1577419;89;21148;-73
2022/10/15 04:56:45;;;;;;;60.12;28.95;;;;;;;1.57;100.00;101743.20;1577366;89;21100;-73
2022/10/15 04:59:12;;;;;;;55.63;27.95;;;;;;;1.64;100.00;101745.83;1577614;91;21148;-73
2022/10/15 05:01:41;;;;;;;56.63;26.68;;;;;;;1.67;100.00;101747.14;1577725;90;21081;-73
2022/10/15 05:04:11;;;;;;;50.90;25.23;;;;;;;1.70;100.00;101746.74;1577471;89;21053;-73
2022/10/15 05:06:39;;;;;;;41.40;21.37;;;;;;;1.75;100.00;101747.66;1577526;89;21108;-73
2022/10/15 05:09:17;;;;;;;43.78;21.20;;;;;;;1.83;100.00;101748.19;1577598;91;21111;-74
2022/10/15 05:11:46;;;;;;;39.95;20.57;;;;;;;1.95;100.00;101752.14;1559686;90;21093;-73
2022/10/15 05:14:14;;;;;;;45.38;21.35;;;;;;;2.06;100.00;101747.17;1568945;90;21132;-73
2022/10/15 05:16:42;;;;;;;38.95;19.55;;;;;;;2.16;100.00;101754.05;1575932;89;21120;-73
2022/10/15 05:19:11;;;;;;;31.12;17.23;;;;;;;2.24;100.00;101749.06;1572819;91;21068;-73
2022/10/15 05:21:39;;;;;;;41.20;17.27;;;;;;;2.32;100.00;101757.61;1577294;89;21136;-73
2022/10/15 05:24:09;;;;;;;33.10;17.95;;;;;;;2.44;100.00;101750.53;1577493;91;21029;-73
2022/10/15 05:26:50;;;;;;;36.38;18.02;;;;;;;2.56;100.00;101758.27;1534458;91;21109;-73
2022/10/15 05:29:18;;;;;;;32.48;18.17;;;;;;;2.73;100.00;101752.89;1567882;91;21093;-73
2022/10/15 05:31:44;;;;;;;34.65;18.30;;;;;;;2.73;100.00;101752.89;1577576;91;21097;-72
2022/10/15 05:34:17;;;;;;;32.60;17.60;;;;;;;2.93;100.00;101750.52;1576498;91;21088;-73
2022/10/15 05:36:55;;;;;;;34.92;18.07;;;;;;;2.93;100.00;101750.52;1577257;89;21081;-73
2022/10/15 05:39:24;;;;;;;34.45;18.42;;;;;;;3.01;100.00;101750.14;1577397;89;21600;-73
2022/10/15 05:41:52;;;;;;;32.25;18.27;;;;;;;3.10;100.00;101750.66;1577216;91;21125;-73
2022/10/15 05:44:21;;;;;;;40.33;19.48;;;;;;;3.31;100.00;101751.63;1577484;90;21077;-73
2022/10/15 05:46:48;;;;;;;37.03;18.80;;;;;;;3.31;100.00;101751.63;1567283;89;21077;-73
2022/10/15 05:49:18;;;;;;;33.08;18.87;;;;;;;3.39;100.00;101751.25;1578314;91;21085;-73
2022/10/15 05:51:46;;;;;;;33.88;18.48;;;;;;;3.50;100.00;101755.95;1579624;91;21128;-73
2022/10/15 05:54:15;;;;;;;33.35;17.17;;;;;;;3.60;100.00;101757.70;1579216;89;21160;-73
2022/10/15 05:56:42;;;;;;;31.62;16.42;;;;;;;3.74;100.00;101759.48;1579348;91;21112;-73
2022/10/15 05:59:09;;;;;;;31.73;16.77;;;;;;;3.85;100.00;101753.14;1579649;91;21100;-73
2022/10/15 06:01:37;;;;;;;28.50;15.18;;;;;;;3.96;100.00;101753.62;1579429;89;21081;-73
2022/10/15 06:04:04;;;;;;;27.25;16.37;;;;;;;4.09;100.00;101745.58;1579669;89;21128;-73
2022/10/15 06:06:33;;;;;;;26.97;15.23;;;;;;;4.23;100.00;101750.71;1579418;89;21577;-73
2022/10/15 06:09:00;;;;;;;26.80;14.63;;;;;;;4.41;100.00;101749.47;1579488;91;21148;-73
2022/10/15 06:11:28;;;;;;;27.75;15.03;;;;;;;4.63;100.00;101739.73;1579399;89;21671;-71
2022/10/15 06:13:55;;;;;;;25.43;14.43;;;;;;;4.79;100.00;101738.44;1579376;91;21029;-73
2022/10/15 06:16:24;;;;;;;25.05;14.28;;;;;;;4.94;100.00;101740.55;1579376;89;21061;-73
2022/10/15 06:18:52;;;;;;;25.35;13.83;;;;;;;5.13;100.00;101742.64;1579713;89;21565;-73
2022/10/15 06:21:21;;;;;;;23.95;12.68;;;;;;;5.26;100.00;101738.39;1579394;91;21109;-73
2022/10/15 06:23:49;;;;;;;25.72;12.95;;;;;;;5.40;100.00;101740.05;1579470;89;21421;-73
2022/10/15 06:26:17;;;;;;;20.75;12.55;;;;;;;5.54;100.00;101743.84;1579572;91;21573;-73
2022/10/15 06:28:45;;;;;;;22.42;12.58;;;;;;;5.74;100.00;101739.94;1579280;89;21569;-74
2022/10/15 06:31:12;;;;;;;21.82;12.28;;;;;;;5.86;100.00;101746.70;1579226;91;21129;-73
2022/10/15 06:33:39;;;;;;;18.62;10.78;;;;;;;6.01;100.00;101746.64;1578807;89;21652;-73
2022/10/15 06:36:10;;;;;;;15.60;10.00;;;;;;;6.12;100.00;101744.02;1578765;91;21128;-74
2022/10/15 06:38:38;;;;;;;13.80;8.45;;;;;;;6.30;100.00;101749.89;1578505;91;21080;-74
2022/10/15 06:41:09;;;;;;;13.28;7.72;;;;;;;6.53;100.00;101764.66;1578021;91;21124;-74
2022/10/15 06:43:35;;;;;;;11.25;6.55;;;;;;;6.67;100.00;101772.24;1578734;89;21588;-73
2022/10/15 06:46:05;;;;;;;8.88;5.60;;;;;;;6.89;100.00;101780.56;1576329;91;21363;-74
2022/10/15 06:48:33;;;;;;;8.43;4.83;;;;;;;7.08;100.00;101791.52;1578736;91;21231;-73
2022/10/15 06:51:02;;;;;;;11.18;5.55;;;;;;;7.22;100.00;101801.64;1576528;89;21128;-73
2022/10/15 06:53:31;;;;;;;9.75;5.37;;;;;;;7.36;100.00;101815.57;1578750;91;21514;-73
2022/10/15 06:56:03;;;;;;;8.60;5.85;;;;;;;7.51;100.00;101812.03;1577155;89;21072;-74
2022/10/15 06:58:32;;;;;;;9.10;4.28;;;;;;;7.74;100.00;101830.99;1588151;89;21164;-74
2022/10/15 07:01:05;;;;;;;6.42;4.53;;;;;;;7.93;100.00;101847.88;1589170;90;21168;-74
2022/10/15 07:03:34;;;;;;;7.03;4.33;;;;;;;8.07;100.00;101854.13;1563502;90;21121;-73
2022/10/15 07:06:04;;;;;;;7.67;4.60;;;;;;;8.28;100.00;101871.40;1579271;90;21115;-73
2022/10/15 07:08:31;;;;;;;8.10;4.87;;;;;;;8.45;100.00;101878.46;1583176;90;21448;-73
2022/10/15 07:11:02;;;;;;;7.33;5.00;;;;;;;8.62;100.00;101889.36;1583770;90;21097;-73
2022/10/15 07:13:30;;;;;;;7.85;4.80;;;;;;;8.82;100.00;101901.08;1576265;90;21152;-74
2022/10/15 07:15:57;;;;;;;10.25;4.95;;;;;;;8.94;100.00;101903.88;1575914;90;21076;-74
2022/10/15 07:18:24;;;;;;;8.35;4.90;;;;;;;9.14;100.00;101906.98;1572580;90;21104;-74
2022/10/15 07:20:53;;;;;;;9.70;5.28;;;;;;;9.33;100.00;101905.44;1581911;89;21062;-74
2022/10/15 07:23:21;;;;;;;14.33;5.75;;;;;;;9.58;100.00;101916.14;1572608;90;21549;-73
2022/10/15 07:25:47;;;;;;;8.00;5.60;;;;;;;9.63;100.00;101915.19;1579146;89;21140;-74
2022/10/15 07:28:14;;;;;;;12.28;6.17;;;;;;;9.72;100.00;101921.05;1582179;90;21093;-73
2022/10/15 07:30:43;;;;;;;11.35;5.37;;;;;;;9.91;100.00;101923.67;1570634;90;21089;-74
2022/10/15 07:33:11;;;;;;;8.35;5.47;;;;;;;10.13;100.00;101924.56;1579044;90;21092;-74
2022/10/15 07:35:40;;;;;;;7.92;4.97;;;;;;;10.23;100.00;101928.65;1583878;90;21136;-74
2022/10/15 07:38:07;;;;;;;7.28;4.50;;;;;;;10.38;100.00;101933.95;1578406;89;21138;-73
2022/10/15 07:40:35;;;;;;;8.63;4.75;;;;;;;10.53;100.00;101934.09;1579767;89;21634;-74
2022/10/15 07:43:02;;;;;;;8.25;5.00;;;;;;;10.63;100.00;101935.59;1578752;90;21148;-74
2022/10/15 07:45:32;;;;;;;8.33;4.50;;;;;;;10.60;100.00;101926.21;1591607;89;21117;-74
2022/10/15 07:48:00;;;;;;;7.10;4.70;;;;;;;10.60;100.00;101926.62;1572482;90;21158;-73
2022/10/15 07:50:27;;;;;;;8.50;4.33;;;;;;;10.74;100.00;101921.19;1588612;90;21127;-73
2022/10/15 07:52:55;;;;;;;9.85;4.40;;;;;;;10.74;100.00;101923.31;1576014;90;21604;-73
2022/10/15 07:55:22;;;;;;;7.20;4.35;;;;;;;10.89;100.00;101924.72;1574794;89;21124;-74
2022/10/15 07:57:49;;;;;;;7.08;4.40;;;;;;;10.95;100.00;101925.87;1583778;89;21070;-74
2022/10/15 08:00:16;;;;;;;5.80;3.60;;;;;;;11.03;100.00;101930.84;1586785;89;21102;-74
2022/10/15 08:02:44;;;;;;;6.72;3.55;;;;;;;11.04;100.00;101931.23;1587308;90;21668;-73
2022/10/15 08:05:11;;;;;;;8.90;3.67;;;;;;;11.14;100.00;101928.84;1579507;90;21117;-74
2022/10/15 08:07:40;;;;;;;6.10;3.65;;;;;;;11.21;100.00;101926.97;1575224;90;21069;-73
2022/10/15 08:10:09;;;;;;;7.75;3.35;;;;;;;11.38;100.00;101922.70;1588132;90;21570;-74
2022/10/15 08:12:38;;;;;;;7.90;3.55;;;;;;;11.35;100.00;101924.06;1586464;89;21669;-73
2022/10/15 08:15:07;;;;;;;5.33;3.95;;;;;;;11.43;100.00;101920.84;1585869;89;21124;-74
2022/10/15 08:17:36;;;;;;;8.08;3.52;;;;;;;11.54;100.00;101912.86;1586591;89;21690;-73
2022/10/15 08:20:05;;;;;;;5.62;3.37;;;;;;;11.63;100.00;101912.16;1575949;90;21080;-73
2022/10/15 08:22:33;;;;;;;7.85;3.60;;;;;;;11.71;100.00;101917.13;1569833;90;21112;-73
2022/10/15 08:25:00;;;;;;;5.97;2.80;;;;;;;11.76;100.00;101917.86;1570371;89;21126;-73
2022/10/15 08:27:28;;;;;;;3.65;2.70;;;;;;;11.77;100.00;101908.37;1560209;90;21147;-73
2022/10/15 08:29:56;;;;;;;6.05;2.70;;;;;;;11.66;100.00;101913.83;1565005;90;21161;-72
2022/10/15 08:32:23;;;;;;;3.83;2.70;;;;;;;11.75;100.00;101912.28;1547374;91;21124;-73
2022/10/15 08:34:51;;;;;;;3.17;2.40;;;;;;;11.78;96.14;101912.22;1567879;89;21621;-72
2022/10/15 08:37:18;;;;;;;5.25;2.42;;;;;;;11.71;96.97;101919.70;1565563;90;21171;-73
2022/10/15 08:39:45;;;;;;;5.67;3.00;;;;;;;11.71;95.58;101926.15;1559645;90;21065;-73
2022/10/15 08:42:20;;;;;;;4.28;2.20;;;;;;;11.73;96.02;101922.25;1564080;91;21116;-72
2022/10/15 08:45:01;;;;;;;4.20;2.65;;;;;;;11.81;97.37;101921.15;1559752;91;21101;-73
2022/10/15 08:47:48;;;;;;;5.58;2.70;;;;;;;11.91;90.96;101925.66;1578672;89;21092;-73
2022/10/15 08:50:49;;;;;;;4.97;2.30;;;;;;;11.99;89.52;101921.58;1579628;91;21529;-73
2022/10/15 08:53:22;;;;;;;4.65;2.33;;;;;;;11.91;87.92;101923.53;1579639;89;21108;-73
2022/10/15 08:55:54;;;;;;;2.72;2.08;;;;;;;11.88;87.02;101917.98;1576208;91;21664;-73
2022/10/15 08:58:50;;;;;;;4.80;2.20;;;;;;;11.96;88.30;101910.91;1572283;89;21115;-73
2022/10/15 09:01:44;;;;;;;3.75;2.70;;;;;;;11.88;88.67;101905.08;1579531;91;21073;-73
2022/10/15 09:04:37;;;;;;;4.37;2.33;;;;;;;11.81;84.49;101906.12;1529697;92;21654;-73
2022/10/15 09:07:12;;;;;;;;;;;;;;;11.96;82.54;101907.04;1539028;91;21273;-73
2022/10/15 09:10:02;;;;;;;5.87;2.62;;;;;;;12.14;86.97;101909.98;1538452;91;20148;-73
2022/10/15 09:12:58;;;;;;;7.72;3.75;;;;;;;12.14;85.06;101908.23;1577550;90;21130;-72
2022/10/15 09:15:32;;;;;;;3.95;2.90;;;;;;;12.13;89.89;101900.56;1571590;90;21169;-73
2022/10/15 09:18:00;;;;;;;4.00;2.77;;;;;;;12.16;91.46;101903.03;1577046;90;21085;-72
2022/10/15 09:20:34;;;;;;;5.17;2.80;;;;;;;12.13;94.52;101901.40;1573693;91;21127;-72
2022/10/15 09:23:01;;;;;;;4.15;2.87;;;;;;;12.13;92.20;101899.27;1569973;90;21561;-72
2022/10/15 09:25:35;;;;;;;6.28;2.90;;;;;;;12.17;87.64;101893.97;1580748;90;21129;-73
2022/10/15 09:28:14;;;;;;;6.58;3.20;;;;;;;12.19;88.00;101887.02;1575645;89;21121;-72
2022/10/15 09:30:52;;;;;;;6.83;4.20;;;;;;;12.30;88.49;101883.28;1568545;91;21057;-73
2022/10/15 09:33:34;;;;;;;3.95;2.60;;;;;;;12.46;84.43;101886.27;1573030;90;21598;-72
2022/10/15 09:36:32;;;;;;;6.62;2.80;;;;;;;12.53;87.42;101889.05;1565550;90;21148;-72
2022/10/15 09:39:34;;;;;;;5.45;2.83;;;;;;;12.47;80.71;101895.69;1567380;90;21080;-72
2022/10/15 09:42:35;;;;;;;4.80;2.60;;;;;;;12.52;82.74;101888.66;1577160;89;21121;-73
2022/10/15 09:45:08;;;;;;;6.20;2.75;;;;;;;12.33;79.68;101890.50;1573961;90;21082;-72
2022/10/15 09:47:36;;;;;;;6.22;3.00;;;;;;;12.31;82.20;101896.61;1566898;90;21065;-73
2022/10/15 09:50:08;;;;;;;4.83;2.77;;;;;;;12.29;85.22;101888.06;1569833;90;21108;-73
2022/10/15 09:53:07;;;;;;;9.50;5.45;;;;;;;12.31;85.57;101888.86;1579370;91;21166;-72
2022/10/15 09:55:51;;;;;;;7.05;3.62;;;;;;;12.28;88.96;101879.90;1573422;90;22325;-73
2022/10/15 09:58:56;;;;;;;4.80;2.70;;;;;;;12.48;83.38;101887.06;1568717;90;21116;-72
2022/10/15 10:01:28;;;;;;;4.97;2.67;;;;;;;12.52;82.78;101877.87;1578171;91;21050;-73
2022/10/15 10:04:17;;;;;;;4.05;2.80;;;;;;;12.66;87.53;101880.50;1572872;91;21147;-72
2022/10/15 10:06:53;;;;;;;4.05;2.50;;;;;;;12.75;81.65;101881.48;1578077;89;21170;-72
2022/10/15 10:09:34;;;;;;;7.67;2.80;;;;;;;12.71;86.72;101881.19;1565379;90;21081;-72
2022/10/15 10:12:07;;;;;;;5.67;2.65;;;;;;;12.78;87.61;101885.28;1539728;90;21095;-72
2022/10/15 10:14:44;;;;;;;6.67;3.08;;;;;;;12.73;85.70;101875.52;1575623;89;21159;-73
2022/10/15 10:17:21;;;;;;;5.12;3.05;;;;;;;12.79;87.74;101876.63;1572345;90;21081;-73
2022/10/15 10:20:16;;;;;;;7.55;3.60;;;;;;;12.76;81.77;101874.15;1565358;90;21616;-73
2022/10/15 10:22:54;;;;;;;5.12;3.05;;;;;;;12.58;82.71;101867.36;1567622;90;21081;-73
2022/10/15 10:25:35;;;;;;;5.00;3.40;;;;;;;12.55;84.63;101858.42;1569391;90;21557;-72
2022/10/15 10:28:13;;;;;;;6.00;3.90;;;;;;;12.60;82.41;101863.44;1572501;91;21089;-73
2022/10/15 10:31:02;;;;;;;4.55;3.90;;;;;;;12.73;88.61;101866.48;1577860;90;21084;-72
2022/10/15 10:33:37;;;;;;;16.30;8.53;;;;;;;12.69;85.32;101867.47;1577595;89;21149;-73
2022/10/15 10:36:07;;;;;;;17.92;9.60;;;;;;;12.74;81.87;101861.72;1570330;89;21105;-73
2022/10/15 10:38:37;;;;;;;9.00;5.15;;;;;;;12.83;81.73;101866.59;1563243;90;21149;-73
2022/10/15 10:41:11;;;;;;;6.35;4.47;;;;;;;12.79;84.57;101866.28;1552230;91;21179;-72
2022/10/15 10:43:54;;;;;;;4.97;3.42;;;;;;;12.79;88.59;101861.12;1563651;90;21179;-73
2022/10/15 10:46:23;;;;;;;5.78;3.47;;;;;;;12.72;89.62;101866.94;1564163;90;21100;-73
2022/10/15 10:48:52;;;;;;;10.35;4.10;;;;;;;12.84;93.80;101865.70;1579808;89;21553;-72
2022/10/15 10:51:26;;;;;;;6.17;3.50;;;;;;;12.97;92.48;101868.73;1578181;89;21081;-72
2022/10/15 10:54:03;;;;;;;8.28;3.42;;;;;;;12.86;89.69;101865.67;1578418;91;21627;-73
2022/10/15 10:56:41;;;;;;;10.00;6.90;;;;;;;12.89;83.57;101866.39;1590474;89;21565;-73
2022/10/15 10:59:34;;;;;;;5.28;3.70;;;;;;;12.83;85.22;101862.28;1586927;90;21632;-73
2022/10/15 11:02:03;;;;;;;7.30;3.50;;;;;;;12.72;84.88;101862.22;1576910;90;21561;-73
2022/10/15 11:04:34;;;;;;;8.10;3.98;;;;;;;12.76;89.60;101862.06;1580323;89;21139;-73
2022/10/15 11:07:23;;;;;;;5.65;3.47;;;;;;;12.76;88.34;101861.23;1583719;89;21136;-73
2022/10/15 11:10:20;;;;;;;70.32;35.38;;;;;;;12.79;90.99;101861.12;1567486;90;21605;-72
2022/10/15 11:13:27;;;;;;;80.05;47.88;;;;;;;12.86;93.80;101852.75;1582233;90;21119;-73
2022/10/15 11:16:16;;;;;;;15.00;10.75;;;;;;;12.89;89.39;101853.47;1590441;89;21554;-72
2022/10/15 11:19:08;;;;;;;15.70;10.45;;;;;;;12.80;88.29;101853.33;1581907;89;21163;-73
2022/10/15 11:22:02;;;;;;;34.38;24.25;;;;;;;12.82;89.89;101846.83;1575467;90;21084;-72
2022/10/15 11:24:37;;;;;;;35.83;28.73;;;;;;;12.89;96.01;101852.17;1575980;90;21084;-73
2022/10/15 11:27:33;;;;;;;35.92;32.03;;;;;;;12.89;92.37;101835.83;1579216;90;21148;-73
2022/10/15 11:30:24;;;;;;;13.25;11.30;;;;;;;12.87;94.01;101851.38;1578444;90;21092;-73
2022/10/15 11:33:02;;;;;;;7.42;4.72;;;;;;;12.83;86.11;101851.08;1577650;89;21088;-73
2022/10/15 11:35:45;;;;;;;5.58;4.28;;;;;;;12.82;86.00;101843.78;1586981;89;21058;-73
2022/10/15 11:38:24;;;;;;;5.60;3.55;;;;;;;12.85;84.33;101846.70;1587933;90;21157;-73
2022/10/15 11:41:15;;;;;;;5.60;3.30;;;;;;;12.94;91.38;101848.17;1591865;89;21033;-73
2022/10/15 11:43:49;;;;;;;4.75;3.30;;;;;;;12.89;88.03;101850.05;1589427;90;21037;-73
2022/10/15 11:46:33;;;;;;;6.20;3.52;;;;;;;12.90;88.55;101851.30;1575172;89;21200;-72